WETO2: N Canadian River, Wetumka, OK

Data processed at Sun Apr 30 2017 23:19


All information presented herein is the property of the government of the United States of America and may be revised or deleted at any time without prior notice.
Dissemination of this information without the expressed written consent of the Public Affairs Office, Tulsa District U.S. Army Corps of Engineers is strictly prohibited.
These data are gathered electronically and, as presented, have not undergone any form of quality control. These data are not guaranteed to be valid or correct.
Go to home page.
Go to station list.
Go to station map.

Upstream stations:

Downstream station:
Previous Day
Next Day
Current Day
    
SHEF ID:       WETO2     North Canadian River near Wetumk
STATION TYPE:  

               PRECIP     STAGE  RIV-FLOW  BAT-LOAD
                   in        ft       cfs      volt
              Ccp-Rev   Ccp-Rev   Ccp-Rev   Ccp-Rev
(US/Central)
04/30 00:00      0.00      9.19      2500     12.17
04/30 01:00      0.00      9.32      2672     12.17
04/30 02:00      0.00      9.45      2850     12.17
04/30 03:00      0.00      9.60      3064     12.17
04/30 04:00      0.00      9.86      3448     12.17
04/30 05:00      0.00     10.85      4787     12.17
04/30 06:00      0.00     11.40      5539     12.17
04/30 07:00      0.00     11.37      5498     12.17
04/30 08:00      0.00     11.33      5444     12.17
04/30 09:00      0.00     11.17      5216     12.25
04/30 10:00      0.01     11.12      5150     12.49
04/30 11:00      0.00     10.81      4736     12.57
04/30 12:00      0.00     10.69      4573     13.05
04/30 13:00      0.00     10.48      4302     13.13
04/30 14:00      0.00     10.33      4122     13.29
04/30 15:00      0.00     10.20      3957     13.21
04/30 16:00      0.00     10.25      4015     13.29
04/30 17:00      0.00     10.37      4169     12.97
04/30 18:00      0.00     10.38      4181     13.05
04/30 19:00      0.00     10.33      4122     13.05
04/30 20:00      0.00     10.55      4399     12.73
04/30 21:00      0.00     10.54      4387     12.49
04/30 22:00      0.00     10.47      4290     12.41
04/30 23:00      0.00     10.46      4278     12.41